• Join FlightAware (Why Join?)
  • Login
  • US Flag 
04:08AM EST


 

Airport Tracker/Info


-or-


 

Live Flight TrackerFlight Track Log ✈ SWA2336 ✈ 11-Apr-2013 ✈ KDAL - KLBB

Flight Track Log - Related Links

Times and Time Zones

All times are in EDT time to prevent confusion due to time zone crossing. See the SWA2336 flight status page for this flight to view local times or setup timezone preferences in your user account.

Time Position Orientation Groundspeed Altitude Reporting Facility
EDT Latitude Longitude Course Direction KTS MPH feet Rate Location/Type
02:51PM 32.9167 -96.9500 312° West 241 277 6,000  Level Dallas / Fort Worth TRACON
02:52PM 32.9833 -97.0000 328° Northwest 275 316 9,400 2,700 Climbing Dallas / Fort Worth TRACON
02:54PM 33.0231 -97.1508 287° West 291 335 13,800 2,640 Climbing Fort Worth Center
02:55PM 33.0128 -97.2722 264° West 309 356 17,000 2,700 Climbing Fort Worth Center
02:56PM 32.9703 -97.4476 287° West  Level FlightAware Approximate
02:56PM 33.0067 -97.3764 266° West 349 402 19,200  Level Fort Worth Center
02:57PM 32.9961 -97.5150 265° West 372 428 21,000 2,220 Climbing Fort Worth Center
02:58PM 32.9875 -97.6461 266° West 396 456 23,700 2,400 Climbing Fort Worth Center
02:59PM 32.9872 -97.7775 270° West 396 456 25,800 1,800 Climbing Fort Worth Center
03:00PM 33.0056 -97.9039 280° West 403 464 27,400 1,980 Climbing Fort Worth Center
03:01PM 33.0258 -98.0328 281° West 408 470 29,800 2,100 Climbing Fort Worth Center
03:02PM 33.0461 -98.1594 281° West 402 463 31,600 1,560 Climbing Fort Worth Center
03:03PM 33.0661 -98.2836 281° West 387 445 33,000 1,200 Climbing Fort Worth Center
03:04PM 33.0903 -98.4078 283° West 392 451 34,000 480 Climbing Fort Worth Center
03:05PM 33.1144 -98.5319 283° West 392 451 34,000  Level Fort Worth Center
03:06PM 33.1361 -98.6564 282° West 392 451 34,000  Level Fort Worth Center
03:07PM 33.1619 -98.7808 284° West 392 451 34,000  Level Fort Worth Center
03:08PM 33.1856 -98.9053 283° West 392 451 34,000  Level Fort Worth Center
03:09PM 33.2069 -99.0297 282° West 392 451 34,000  Level Fort Worth Center
03:10PM 33.2325 -99.1519 284° West 387 445 34,000  Level Fort Worth Center
03:11PM 33.2536 -99.2767 281° West 387 445 34,000  Level Fort Worth Center
03:12PM 33.2769 -99.3989 283° West 387 445 34,000  Level Fort Worth Center
03:13PM 33.2978 -99.5233 281° West 387 445 34,000  Level Fort Worth Center
03:14PM 33.3186 -99.6433 282° West 382 440 34,000  Level Fort Worth Center
03:15PM 33.3433 -99.7683 283° West 382 440 34,000  Level Fort Worth Center
03:16PM 33.3642 -99.8906 282° West 377 434 34,000  Level Fort Worth Center
03:17PM 33.3867 -100.0133 282° West 372 428 34,000 -60 Level Fort Worth Center
03:18PM 33.4092 -100.1333 283° West 372 428 33,900 -600 Descending Fort Worth Center
03:19PM 33.4272 -100.2533 280° West 372 428 32,900 -1,200 Descending Fort Worth Center
03:20PM 33.4497 -100.3711 283° West 372 428 31,600 -2,280 Descending Fort Worth Center
03:21PM 33.4697 -100.4961 281° West 377 434 28,400 -2,880 Descending Fort Worth Center
03:22PM 33.4917 -100.6189 282° West 377 434 25,800 -2,520 Descending Fort Worth Center
03:23PM 33.5114 -100.7394 281° West 372 428 23,400 -2,280 Descending Fort Worth Center
03:23PM 33.5108 -100.7642 268° West 362 417 22,900 -2,460 Descending Fort Worth Center
03:24PM 33.5236 -100.8319 283° West 354 407 21,400 -2,640 Descending Fort Worth Center
03:25PM 33.5453 -100.9525 282° West 348 400 18,900 -2,460 Descending Fort Worth Center
03:26PM 33.5650 -101.0631 282° West 340 391 16,500 -2,640 Descending Fort Worth Center
03:27PM 33.5825 -101.1783 280° West 333 383 13,300 -2,940 Descending Fort Worth Center
03:28PM 33.6003 -101.2789 282° West 331 381 10,600 -1,740 Descending Fort Worth Center
03:29PM 33.6158 -101.3817 280° West 292 336 10,000 -1,140 Descending Fort Worth Center
03:30PM 33.6419 -101.4778 288° West 254 292 8,300 -1,620 Descending Fort Worth Center
03:31PM 33.6642 -101.5611 288° West 260 299 6,600 -1,680 Descending Fort Worth Center
03:32PM 33.6828 -101.6344 287° West 253 291 5,100 -1,200 Descending Fort Worth Center
03:33PM 33.7031 -101.7128 287° West 243 280 4,400 -300 Descending Fort Worth Center
03:34PM 33.7178 -101.7683 288° West 201 231 4,500 -240 Climbing Fort Worth Center
03:35PM 33.7164 -101.8083 268° West 153 176 4,000 -600 Descending Fort Worth Center
03:36PM 33.6883 -101.8294 212° Southwest 134 154 3,400 -360 Descending Fort Worth Center
03:37PM 33.6592 -101.8328 185° South 129 148 3,300 -60 Descending Fort Worth Center
03:38PM 33.6461 -101.8447 217° Southwest 48 55 3,300  Level Fort Worth Center